sensor_id;sensor_type;location;lat;lon;timestamp;pressure;altitude;pressure_sealevel;temperature;humidity
59487;BME280;45298;54.918;73.504;2023-04-23T00:00:12;100323.75;;;5.06;55.47
59487;BME280;45298;54.918;73.504;2023-04-23T00:02:47;100315.09;;;5.02;55.50
59487;BME280;45298;54.918;73.504;2023-04-23T00:05:18;100323.78;;;5.04;55.48
59487;BME280;45298;54.918;73.504;2023-04-23T00:07:47;100318.53;;;5.04;55.32
59487;BME280;45298;54.918;73.504;2023-04-23T00:10:16;100328.84;;;5.10;55.54
59487;BME280;45298;54.918;73.504;2023-04-23T00:12:45;100341.72;;;5.18;55.50
59487;BME280;45298;54.918;73.504;2023-04-23T00:15:17;100341.06;;;5.11;56.16
59487;BME280;45298;54.918;73.504;2023-04-23T00:17:51;100335.91;;;5.08;55.66
59487;BME280;45298;54.918;73.504;2023-04-23T00:20:20;100325.72;;;4.99;55.87
59487;BME280;45298;54.918;73.504;2023-04-23T00:22:50;100301.19;;;4.98;55.84
59487;BME280;45298;54.918;73.504;2023-04-23T00:25:19;100315.88;;;5.04;56.12
59487;BME280;45298;54.918;73.504;2023-04-23T00:27:47;100299.38;;;5.01;56.03
59487;BME280;45298;54.918;73.504;2023-04-23T00:30:16;100326.94;;;5.14;56.37
59487;BME280;45298;54.918;73.504;2023-04-23T00:32:46;100320.88;;;5.12;56.17
59487;BME280;45298;54.918;73.504;2023-04-23T00:35:15;100314.44;;;5.21;56.40
59487;BME280;45298;54.918;73.504;2023-04-23T00:37:44;100315.25;;;5.23;56.78
59487;BME280;45298;54.918;73.504;2023-04-23T00:40:13;100305.63;;;5.22;56.35
59487;BME280;45298;54.918;73.504;2023-04-23T00:42:41;100311.38;;;5.33;56.17
59487;BME280;45298;54.918;73.504;2023-04-23T00:45:11;100294.00;;;5.29;56.16
59487;BME280;45298;54.918;73.504;2023-04-23T00:47:40;100315.28;;;5.47;55.87
59487;BME280;45298;54.918;73.504;2023-04-23T00:50:10;100300.41;;;5.45;55.58
59487;BME280;45298;54.918;73.504;2023-04-23T00:52:40;100344.28;;;5.69;55.48
59487;BME280;45298;54.918;73.504;2023-04-23T00:55:09;100283.38;;;5.56;55.52
59487;BME280;45298;54.918;73.504;2023-04-23T00:57:38;100293.31;;;5.71;55.59
59487;BME280;45298;54.918;73.504;2023-04-23T01:00:08;100312.75;;;5.91;55.25
59487;BME280;45298;54.918;73.504;2023-04-23T01:02:38;100292.38;;;5.96;55.51
59487;BME280;45298;54.918;73.504;2023-04-23T01:05:11;100298.22;;;6.04;55.25
59487;BME280;45298;54.918;73.504;2023-04-23T01:07:43;100304.72;;;6.18;55.03
59487;BME280;45298;54.918;73.504;2023-04-23T01:10:12;100226.34;;;5.79;54.59
59487;BME280;45298;54.918;73.504;2023-04-23T01:12:42;100302.34;;;6.34;54.40
59487;BME280;45298;54.918;73.504;2023-04-23T01:15:11;100280.72;;;6.26;54.57
59487;BME280;45298;54.918;73.504;2023-04-23T01:17:40;100219.31;;;6.03;54.68
59487;BME280;45298;54.918;73.504;2023-04-23T01:20:10;100257.63;;;6.32;54.48
59487;BME280;45298;54.918;73.504;2023-04-23T01:22:40;100294.94;;;6.64;54.15
59487;BME280;45298;54.918;73.504;2023-04-23T01:25:09;100254.22;;;6.51;54.26
59487;BME280;45298;54.918;73.504;2023-04-23T01:27:38;100211.81;;;6.37;54.06
59487;BME280;45298;54.918;73.504;2023-04-23T01:30:07;100249.59;;;6.77;54.06
59487;BME280;45298;54.918;73.504;2023-04-23T01:32:38;100286.13;;;7.07;52.89
59487;BME280;45298;54.918;73.504;2023-04-23T01:35:09;100273.94;;;7.25;53.26
59487;BME280;45298;54.918;73.504;2023-04-23T01:37:41;100257.44;;;7.39;52.34
59487;BME280;45298;54.918;73.504;2023-04-23T01:40:11;100234.66;;;7.57;51.74
59487;BME280;45298;54.918;73.504;2023-04-23T01:42:40;100262.81;;;8.31;51.03
59487;BME280;45298;54.918;73.504;2023-04-23T01:45:09;100280.44;;;9.03;49.72
59487;BME280;45298;54.918;73.504;2023-04-23T01:47:39;100256.66;;;9.19;48.38
59487;BME280;45298;54.918;73.504;2023-04-23T01:50:09;100249.91;;;9.47;48.39
59487;BME280;45298;54.918;73.504;2023-04-23T01:52:38;100230.25;;;9.35;48.15
59487;BME280;45298;54.918;73.504;2023-04-23T01:55:08;100235.34;;;9.22;48.00
59487;BME280;45298;54.918;73.504;2023-04-23T01:57:37;100246.25;;;9.16;48.25
59487;BME280;45298;54.918;73.504;2023-04-23T02:00:10;100225.88;;;9.00;49.46
59487;BME280;45298;54.918;73.504;2023-04-23T02:02:42;100232.53;;;8.91;49.46
59487;BME280;45298;54.918;73.504;2023-04-23T02:05:17;100228.56;;;8.83;49.28
59487;BME280;45298;54.918;73.504;2023-04-23T02:07:48;100218.44;;;8.73;49.51
59487;BME280;45298;54.918;73.504;2023-04-23T02:10:17;100238.47;;;8.79;50.05
59487;BME280;45298;54.918;73.504;2023-04-23T02:12:47;100221.81;;;8.77;49.52
59487;BME280;45298;54.918;73.504;2023-04-23T02:15:16;100234.53;;;8.86;49.44
59487;BME280;45298;54.918;73.504;2023-04-23T02:17:45;100220.88;;;8.78;49.90
59487;BME280;45298;54.918;73.504;2023-04-23T02:20:14;100217.22;;;8.81;50.43
59487;BME280;45298;54.918;73.504;2023-04-23T02:22:43;100231.06;;;8.86;50.40
59487;BME280;45298;54.918;73.504;2023-04-23T02:25:14;100225.47;;;8.92;49.93
59487;BME280;45298;54.918;73.504;2023-04-23T02:27:44;100252.34;;;9.00;50.83
59487;BME280;45298;54.918;73.504;2023-04-23T02:30:13;100173.13;;;8.64;50.40
59487;BME280;45298;54.918;73.504;2023-04-23T02:32:42;100239.25;;;9.15;50.23
59487;BME280;45298;54.918;73.504;2023-04-23T02:35:11;100152.34;;;8.73;50.14
59487;BME280;45298;54.918;73.504;2023-04-23T02:37:40;100193.56;;;9.11;50.03
59487;BME280;45298;54.918;73.504;2023-04-23T02:40:09;100198.78;;;9.13;49.76
59487;BME280;45298;54.918;73.504;2023-04-23T02:42:38;100168.78;;;8.96;50.46
59487;BME280;45298;54.918;73.504;2023-04-23T02:45:10;100158.97;;;8.98;50.13
59487;BME280;45298;54.918;73.504;2023-04-23T02:47:39;100189.91;;;9.14;50.39
59487;BME280;45298;54.918;73.504;2023-04-23T02:50:08;100166.84;;;9.00;50.54
59487;BME280;45298;54.918;73.504;2023-04-23T02:52:37;100172.34;;;8.95;50.49
59487;BME280;45298;54.918;73.504;2023-04-23T02:55:07;100179.03;;;9.02;49.99
59487;BME280;45298;54.918;73.504;2023-04-23T02:57:36;100153.84;;;8.95;50.76
59487;BME280;45298;54.918;73.504;2023-04-23T03:00:06;100168.25;;;9.23;50.81
59487;BME280;45298;54.918;73.504;2023-04-23T03:02:41;100166.97;;;9.30;49.52
59487;BME280;45298;54.918;73.504;2023-04-23T03:05:10;100191.66;;;9.47;50.21
59487;BME280;45298;54.918;73.504;2023-04-23T03:07:40;100203.59;;;9.54;50.29
59487;BME280;45298;54.918;73.504;2023-04-23T03:10:09;100179.53;;;9.43;49.72
59487;BME280;45298;54.918;73.504;2023-04-23T03:12:39;100209.59;;;9.58;49.69
59487;BME280;45298;54.918;73.504;2023-04-23T03:15:08;100174.41;;;9.40;49.93
59487;BME280;45298;54.918;73.504;2023-04-23T03:17:37;100180.56;;;9.40;50.29
59487;BME280;45298;54.918;73.504;2023-04-23T03:20:07;100158.63;;;9.38;50.25
59487;BME280;45298;54.918;73.504;2023-04-23T03:22:38;100139.22;;;9.21;50.28
59487;BME280;45298;54.918;73.504;2023-04-23T03:25:07;100167.22;;;9.42;50.11
59487;BME280;45298;54.918;73.504;2023-04-23T03:27:38;100181.06;;;9.63;50.07
59487;BME280;45298;54.918;73.504;2023-04-23T03:30:08;100158.09;;;9.63;50.14
59487;BME280;45298;54.918;73.504;2023-04-23T03:32:37;100158.16;;;9.78;50.19
59487;BME280;45298;54.918;73.504;2023-04-23T03:35:07;100161.13;;;9.88;50.13
59487;BME280;45298;54.918;73.504;2023-04-23T03:37:40;100175.03;;;10.07;49.30
59487;BME280;45298;54.918;73.504;2023-04-23T03:40:10;100161.69;;;10.09;49.93
59487;BME280;45298;54.918;73.504;2023-04-23T03:42:40;100144.00;;;10.09;49.74
59487;BME280;45298;54.918;73.504;2023-04-23T03:45:13;100175.38;;;10.48;49.16
59487;BME280;45298;54.918;73.504;2023-04-23T03:47:42;100150.66;;;10.47;48.69
59487;BME280;45298;54.918;73.504;2023-04-23T03:50:11;100158.28;;;10.68;48.98
59487;BME280;45298;54.918;73.504;2023-04-23T03:52:51;100126.69;;;10.63;48.71
59487;BME280;45298;54.918;73.504;2023-04-23T03:55:40;100165.28;;;10.83;48.37
59487;BME280;45298;54.918;73.504;2023-04-23T03:58:09;100136.00;;;10.70;48.24
59487;BME280;45298;54.918;73.504;2023-04-23T04:00:42;100026.06;;;10.17;48.37
59487;BME280;45298;54.918;73.504;2023-04-23T04:03:11;100129.56;;;10.89;48.50
59487;BME280;45298;54.918;73.504;2023-04-23T04:05:40;100119.41;;;10.96;48.43
59487;BME280;45298;54.918;73.504;2023-04-23T04:08:09;100121.38;;;11.07;48.95
59487;BME280;45298;54.918;73.504;2023-04-23T04:10:39;100050.06;;;10.73;48.24
59487;BME280;45298;54.918;73.504;2023-04-23T04:13:08;100102.91;;;11.05;48.42
59487;BME280;45298;54.918;73.504;2023-04-23T04:15:37;100107.81;;;11.11;48.17
59487;BME280;45298;54.918;73.504;2023-04-23T04:18:06;100116.16;;;11.19;48.17
59487;BME280;45298;54.918;73.504;2023-04-23T04:20:35;100122.78;;;11.27;48.61
59487;BME280;45298;54.918;73.504;2023-04-23T04:23:04;100129.22;;;11.37;48.60
59487;BME280;45298;54.918;73.504;2023-04-23T04:25:33;100106.44;;;11.33;48.75
59487;BME280;45298;54.918;73.504;2023-04-23T04:28:07;100092.41;;;11.45;48.59
59487;BME280;45298;54.918;73.504;2023-04-23T04:30:39;100095.94;;;11.59;48.16
59487;BME280;45298;54.918;73.504;2023-04-23T04:33:10;100023.25;;;11.19;47.79
59487;BME280;45298;54.918;73.504;2023-04-23T04:35:38;100093.63;;;11.67;47.93
59487;BME280;45298;54.918;73.504;2023-04-23T04:38:07;100076.16;;;11.50;48.07
59487;BME280;45298;54.918;73.504;2023-04-23T04:40:36;100108.59;;;11.68;48.43
59487;BME280;45298;54.918;73.504;2023-04-23T04:43:05;100076.19;;;11.63;48.66
59487;BME280;45298;54.918;73.504;2023-04-23T04:45:34;100060.34;;;11.61;48.24
59487;BME280;45298;54.918;73.504;2023-04-23T04:48:03;100096.91;;;11.98;48.75
59487;BME280;45298;54.918;73.504;2023-04-23T04:50:32;100083.97;;;12.06;48.15
59487;BME280;45298;54.918;73.504;2023-04-23T04:53:01;100096.34;;;12.33;48.63
59487;BME280;45298;54.918;73.504;2023-04-23T04:55:29;100091.16;;;12.45;48.49
59487;BME280;45298;54.918;73.504;2023-04-23T04:57:58;100080.94;;;12.64;47.49
59487;BME280;45298;54.918;73.504;2023-04-23T05:00:29;100085.22;;;13.04;47.85
59487;BME280;45298;54.918;73.504;2023-04-23T05:02:57;100079.69;;;13.32;47.05
59487;BME280;45298;54.918;73.504;2023-04-23T05:05:27;100016.16;;;13.14;45.99
59487;BME280;45298;54.918;73.504;2023-04-23T05:07:55;100058.25;;;13.46;45.48
59487;BME280;45298;54.918;73.504;2023-04-23T05:10:29;99968.84;;;12.93;45.91
59487;BME280;45298;54.918;73.504;2023-04-23T05:12:59;100050.84;;;13.63;45.79
59487;BME280;45298;54.918;73.504;2023-04-23T05:15:28;100058.41;;;13.80;45.23
59487;BME280;45298;54.918;73.504;2023-04-23T05:17:57;100048.00;;;13.88;45.25
59487;BME280;45298;54.918;73.504;2023-04-23T05:20:26;99989.06;;;13.69;45.33
59487;BME280;45298;54.918;73.504;2023-04-23T05:22:55;99986.66;;;13.77;45.15
59487;BME280;45298;54.918;73.504;2023-04-23T05:25:27;100030.13;;;14.13;45.02
59487;BME280;45298;54.918;73.504;2023-04-23T05:27:56;100036.44;;;14.24;44.98
59487;BME280;45298;54.918;73.504;2023-04-23T05:30:25;100011.44;;;14.25;44.99
59487;BME280;45298;54.918;73.504;2023-04-23T05:32:55;100022.41;;;14.56;44.71
59487;BME280;45298;54.918;73.504;2023-04-23T05:35:24;100004.22;;;14.72;44.53
59487;BME280;45298;54.918;73.504;2023-04-23T05:37:53;99987.19;;;14.85;44.22
59487;BME280;45298;54.918;73.504;2023-04-23T05:40:22;100002.47;;;14.94;44.25
59487;BME280;45298;54.918;73.504;2023-04-23T05:42:51;99990.22;;;14.91;43.67
59487;BME280;45298;54.918;73.504;2023-04-23T05:45:20;99965.94;;;14.94;43.44
59487;BME280;45298;54.918;73.504;2023-04-23T05:47:49;99989.44;;;15.12;42.20
59487;BME280;45298;54.918;73.504;2023-04-23T05:50:20;99977.66;;;15.15;41.79
59487;BME280;45298;54.918;73.504;2023-04-23T05:52:49;99961.38;;;15.18;42.19
59487;BME280;45298;54.918;73.504;2023-04-23T05:55:19;99979.00;;;15.41;41.41
59487;BME280;45298;54.918;73.504;2023-04-23T05:57:49;99959.91;;;15.46;41.37
59487;BME280;45298;54.918;73.504;2023-04-23T06:00:18;99958.03;;;15.58;41.66
59487;BME280;45298;54.918;73.504;2023-04-23T06:02:48;99957.06;;;15.80;40.75
59487;BME280;45298;54.918;73.504;2023-04-23T06:05:17;99966.59;;;15.94;40.47
59487;BME280;45298;54.918;73.504;2023-04-23T06:07:46;99947.28;;;15.91;40.16
59487;BME280;45298;54.918;73.504;2023-04-23T06:10:15;99941.19;;;16.10;39.96
59487;BME280;45298;54.918;73.504;2023-04-23T06:12:44;99942.06;;;16.20;39.60
59487;BME280;45298;54.918;73.504;2023-04-23T06:15:13;99959.38;;;16.47;39.41
59487;BME280;45298;54.918;73.504;2023-04-23T06:17:42;99949.38;;;16.49;38.68
59487;BME280;45298;54.918;73.504;2023-04-23T06:20:11;99934.31;;;16.58;37.85
59487;BME280;45298;54.918;73.504;2023-04-23T06:22:41;99934.88;;;16.61;37.12
59487;BME280;45298;54.918;73.504;2023-04-23T06:25:12;99948.44;;;16.70;36.44
59487;BME280;45298;54.918;73.504;2023-04-23T06:27:41;99945.34;;;16.74;36.36
59487;BME280;45298;54.918;73.504;2023-04-23T06:30:17;99928.00;;;16.69;36.98
59487;BME280;45298;54.918;73.504;2023-04-23T06:32:46;99945.91;;;16.88;36.38
59487;BME280;45298;54.918;73.504;2023-04-23T06:35:15;99900.94;;;16.62;36.24
59487;BME280;45298;54.918;73.504;2023-04-23T06:37:44;99934.09;;;16.90;36.02
59487;BME280;45298;54.918;73.504;2023-04-23T06:40:13;99961.50;;;17.04;36.13
59487;BME280;45298;54.918;73.504;2023-04-23T06:42:42;99945.81;;;16.89;35.56
59487;BME280;45298;54.918;73.504;2023-04-23T06:45:12;99965.16;;;17.03;36.15
59487;BME280;45298;54.918;73.504;2023-04-23T06:47:42;99956.41;;;17.01;34.69
59487;BME280;45298;54.918;73.504;2023-04-23T06:50:11;99933.81;;;16.84;34.01
59487;BME280;45298;54.918;73.504;2023-04-23T06:52:40;99951.59;;;16.85;34.09
59487;BME280;45298;54.918;73.504;2023-04-23T06:55:13;99958.63;;;16.76;34.30
59487;BME280;45298;54.918;73.504;2023-04-23T06:57:41;99948.84;;;16.55;33.56
59487;BME280;45298;54.918;73.504;2023-04-23T07:00:11;99939.50;;;16.50;33.47
59487;BME280;45298;54.918;73.504;2023-04-23T07:02:42;99901.50;;;16.15;33.81
59487;BME280;45298;54.918;73.504;2023-04-23T07:05:11;99955.97;;;16.45;33.83
59487;BME280;45298;54.918;73.504;2023-04-23T07:07:40;99959.09;;;16.50;33.48
59487;BME280;45298;54.918;73.504;2023-04-23T07:10:10;99954.81;;;16.38;33.22
59487;BME280;45298;54.918;73.504;2023-04-23T07:12:43;99918.13;;;16.19;33.20
59487;BME280;45298;54.918;73.504;2023-04-23T07:15:12;99918.28;;;16.17;33.04
59487;BME280;45298;54.918;73.504;2023-04-23T07:17:41;99946.34;;;16.33;33.41
59487;BME280;45298;54.918;73.504;2023-04-23T07:20:10;99927.97;;;16.18;33.06
59487;BME280;45298;54.918;73.504;2023-04-23T07:22:39;99934.34;;;16.17;33.26
59487;BME280;45298;54.918;73.504;2023-04-23T07:25:11;99942.22;;;16.19;32.91
59487;BME280;45298;54.918;73.504;2023-04-23T07:27:39;99931.31;;;16.10;32.84
59487;BME280;45298;54.918;73.504;2023-04-23T07:30:08;99924.28;;;16.09;32.70
59487;BME280;45298;54.918;73.504;2023-04-23T07:32:37;99941.81;;;16.23;32.19
59487;BME280;45298;54.918;73.504;2023-04-23T07:35:07;99938.03;;;16.26;31.97
59487;BME280;45298;54.918;73.504;2023-04-23T07:37:37;99923.19;;;16.12;31.86
59487;BME280;45298;54.918;73.504;2023-04-23T07:40:07;99920.66;;;16.20;31.53
59487;BME280;45298;54.918;73.504;2023-04-23T07:42:36;99920.97;;;16.17;31.08
59487;BME280;45298;54.918;73.504;2023-04-23T07:45:06;99939.28;;;16.22;31.16
59487;BME280;45298;54.918;73.504;2023-04-23T07:47:35;99934.91;;;16.21;31.00
59487;BME280;45298;54.918;73.504;2023-04-23T07:50:04;99934.34;;;16.17;31.03
59487;BME280;45298;54.918;73.504;2023-04-23T07:52:34;99930.66;;;16.18;31.32
59487;BME280;45298;54.918;73.504;2023-04-23T07:55:03;99934.03;;;16.20;30.70
59487;BME280;45298;54.918;73.504;2023-04-23T07:57:32;99927.13;;;16.17;31.21
59487;BME280;45298;54.918;73.504;2023-04-23T08:00:01;99912.31;;;16.13;30.95
59487;BME280;45298;54.918;73.504;2023-04-23T08:02:37;99896.69;;;16.09;31.13
59487;BME280;45298;54.918;73.504;2023-04-23T08:05:07;99894.19;;;16.17;31.12
59487;BME280;45298;54.918;73.504;2023-04-23T08:07:36;99892.91;;;16.21;31.44
59487;BME280;45298;54.918;73.504;2023-04-23T08:10:06;99912.28;;;16.35;31.33
59487;BME280;45298;54.918;73.504;2023-04-23T08:12:35;99888.28;;;16.23;31.11
59487;BME280;45298;54.918;73.504;2023-04-23T08:15:04;99891.44;;;16.38;31.06
59487;BME280;45298;54.918;73.504;2023-04-23T08:17:38;99874.81;;;16.35;31.29
59487;BME280;45298;54.918;73.504;2023-04-23T08:20:07;99883.13;;;16.41;30.67
59487;BME280;45298;54.918;73.504;2023-04-23T08:22:36;99867.50;;;16.37;30.76
59487;BME280;45298;54.918;73.504;2023-04-23T08:25:08;99886.94;;;16.49;30.98
59487;BME280;45298;54.918;73.504;2023-04-23T08:27:37;99876.81;;;16.52;30.76
59487;BME280;45298;54.918;73.504;2023-04-23T08:30:07;99863.53;;;16.41;30.95
59487;BME280;45298;54.918;73.504;2023-04-23T08:32:38;99873.69;;;16.47;30.82
59487;BME280;45298;54.918;73.504;2023-04-23T08:35:08;99861.72;;;16.41;30.42
59487;BME280;45298;54.918;73.504;2023-04-23T08:37:37;99861.13;;;16.38;29.85
59487;BME280;45298;54.918;73.504;2023-04-23T08:40:07;99815.97;;;16.04;29.79
59487;BME280;45298;54.918;73.504;2023-04-23T08:42:50;99851.38;;;16.17;29.04
59487;BME280;45298;54.918;73.504;2023-04-23T08:45:21;99844.88;;;16.10;29.50
59487;BME280;45298;54.918;73.504;2023-04-23T08:47:50;99886.03;;;16.19;29.61
59487;BME280;45298;54.918;73.504;2023-04-23T08:50:20;99892.13;;;15.99;30.76
59487;BME280;45298;54.918;73.504;2023-04-23T08:52:52;99907.03;;;15.92;33.13
59487;BME280;45298;54.918;73.504;2023-04-23T08:55:22;99864.03;;;15.53;33.95
59487;BME280;45298;54.918;73.504;2023-04-23T08:57:51;99876.97;;;15.57;34.03
59487;BME280;45298;54.918;73.504;2023-04-23T09:00:20;99809.09;;;15.18;34.31
59487;BME280;45298;54.918;73.504;2023-04-23T09:02:51;99863.16;;;15.52;34.68
59487;BME280;45298;54.918;73.504;2023-04-23T09:05:21;99855.03;;;15.54;34.91
59487;BME280;45298;54.918;73.504;2023-04-23T09:07:50;99821.88;;;15.35;35.05
59487;BME280;45298;54.918;73.504;2023-04-23T09:10:21;99834.16;;;15.48;35.25
59487;BME280;45298;54.918;73.504;2023-04-23T09:12:50;99838.56;;;15.59;34.98
59487;BME280;45298;54.918;73.504;2023-04-23T09:15:19;99832.66;;;15.55;34.81
59487;BME280;45298;54.918;73.504;2023-04-23T09:17:49;99841.66;;;15.54;35.04
59487;BME280;45298;54.918;73.504;2023-04-23T09:20:18;99840.69;;;15.55;35.59
59487;BME280;45298;54.918;73.504;2023-04-23T09:22:50;99831.13;;;15.62;35.17
59487;BME280;45298;54.918;73.504;2023-04-23T09:25:22;99787.28;;;15.44;35.04
59487;BME280;45298;54.918;73.504;2023-04-23T09:27:51;99774.84;;;15.54;34.87
59487;BME280;45298;54.918;73.504;2023-04-23T09:30:20;99845.31;;;15.84;34.80
59487;BME280;45298;54.918;73.504;2023-04-23T09:32:50;99852.88;;;16.00;35.41
59487;BME280;45298;54.918;73.504;2023-04-23T09:35:20;99834.56;;;15.95;35.33
59487;BME280;45298;54.918;73.504;2023-04-23T09:37:50;99848.81;;;16.06;35.63
59487;BME280;45298;54.918;73.504;2023-04-23T09:40:22;99842.06;;;16.11;36.05
59487;BME280;45298;54.918;73.504;2023-04-23T09:42:52;99827.13;;;16.09;35.90
59487;BME280;45298;54.918;73.504;2023-04-23T09:45:23;99834.94;;;16.31;35.63
59487;BME280;45298;54.918;73.504;2023-04-23T09:47:56;99844.25;;;16.37;35.47
59487;BME280;45298;54.918;73.504;2023-04-23T09:50:32;99831.41;;;16.41;35.19
59487;BME280;45298;54.918;73.504;2023-04-23T09:53:02;99765.13;;;15.94;35.17
59487;BME280;45298;54.918;73.504;2023-04-23T09:55:36;99822.63;;;16.19;35.21
59487;BME280;45298;54.918;73.504;2023-04-23T09:58:11;99821.94;;;16.07;36.25
59487;BME280;45298;54.918;73.504;2023-04-23T10:00:41;99820.88;;;15.98;35.98
59487;BME280;45298;54.918;73.504;2023-04-23T10:03:10;99816.56;;;15.76;36.23
59487;BME280;45298;54.918;73.504;2023-04-23T10:05:41;99757.47;;;15.38;36.17
59487;BME280;45298;54.918;73.504;2023-04-23T10:08:13;99761.22;;;15.36;36.63
59487;BME280;45298;54.918;73.504;2023-04-23T10:10:44;99785.53;;;15.54;36.55
59487;BME280;45298;54.918;73.504;2023-04-23T10:13:36;99746.53;;;15.20;36.42
59487;BME280;45298;54.918;73.504;2023-04-23T10:16:06;99797.72;;;15.47;35.89
59487;BME280;45298;54.918;73.504;2023-04-23T10:18:51;99779.94;;;15.36;36.37
59487;BME280;45298;54.918;73.504;2023-04-23T10:21:24;99727.34;;;15.05;36.57
59487;BME280;45298;54.918;73.504;2023-04-23T10:24:09;99774.19;;;15.40;36.87
59487;BME280;45298;54.918;73.504;2023-04-23T10:26:41;99761.38;;;15.34;36.44
59487;BME280;45298;54.918;73.504;2023-04-23T10:29:13;99750.84;;;15.43;36.44
59487;BME280;45298;54.918;73.504;2023-04-23T10:31:46;99698.19;;;15.23;35.83
59487;BME280;45298;54.918;73.504;2023-04-23T10:34:16;99740.81;;;15.56;34.81
59487;BME280;45298;54.918;73.504;2023-04-23T10:36:50;99736.16;;;15.58;34.62
59487;BME280;45298;54.918;73.504;2023-04-23T10:39:21;99677.13;;;15.30;34.23
59487;BME280;45298;54.918;73.504;2023-04-23T10:41:58;99705.78;;;15.59;34.55
59487;BME280;45298;54.918;73.504;2023-04-23T10:44:37;99739.44;;;15.71;34.16
59487;BME280;45298;54.918;73.504;2023-04-23T10:47:16;99711.53;;;15.64;34.02
59487;BME280;45298;54.918;73.504;2023-04-23T10:49:45;99706.97;;;15.86;33.99
59487;BME280;45298;54.918;73.504;2023-04-23T10:52:18;99717.16;;;16.02;33.86
59487;BME280;45298;54.918;73.504;2023-04-23T10:54:58;99719.84;;;16.12;33.09
59487;BME280;45298;54.918;73.504;2023-04-23T10:57:27;99699.97;;;16.14;32.62
59487;BME280;45298;54.918;73.504;2023-04-23T10:59:56;99659.56;;;16.08;33.23
59487;BME280;45298;54.918;73.504;2023-04-23T11:02:42;99674.50;;;16.20;32.52
59487;BME280;45298;54.918;73.504;2023-04-23T11:05:12;99679.44;;;16.25;32.67
59487;BME280;45298;54.918;73.504;2023-04-23T11:08:02;99690.00;;;16.26;32.68
59487;BME280;45298;54.918;73.504;2023-04-23T11:10:59;99662.97;;;16.20;32.98
59487;BME280;45298;54.918;73.504;2023-04-23T11:13:29;99658.31;;;16.12;32.47
59487;BME280;45298;54.918;73.504;2023-04-23T11:16:15;99652.25;;;16.10;32.71
59487;BME280;45298;54.918;73.504;2023-04-23T11:19:14;99668.03;;;16.03;32.58
59487;BME280;45298;54.918;73.504;2023-04-23T11:24:37;99649.38;;;15.82;31.95
59487;BME280;45298;54.918;73.504;2023-04-23T11:27:16;99656.19;;;15.86;31.69
59487;BME280;45298;54.918;73.504;2023-04-23T11:29:47;99652.81;;;15.94;31.95
59487;BME280;45298;54.918;73.504;2023-04-23T11:32:16;99662.25;;;16.08;31.06
59487;BME280;45298;54.918;73.504;2023-04-23T11:34:47;99633.97;;;16.05;30.95
59487;BME280;45298;54.918;73.504;2023-04-23T11:37:17;99649.44;;;16.11;31.00
59487;BME280;45298;54.918;73.504;2023-04-23T11:39:46;99623.97;;;15.97;31.02
59487;BME280;45298;54.918;73.504;2023-04-23T11:42:16;99650.28;;;16.02;31.24
59487;BME280;45298;54.918;73.504;2023-04-23T11:44:47;99639.31;;;15.95;30.79
59487;BME280;45298;54.918;73.504;2023-04-23T11:47:16;99621.81;;;15.81;30.97
59487;BME280;45298;54.918;73.504;2023-04-23T11:49:47;99634.75;;;15.76;30.97
59487;BME280;45298;54.918;73.504;2023-04-23T11:52:16;99609.25;;;15.62;30.62
59487;BME280;45298;54.918;73.504;2023-04-23T11:54:45;99607.41;;;15.53;30.78
59487;BME280;45298;54.918;73.504;2023-04-23T11:57:14;99569.53;;;15.28;30.82
59487;BME280;45298;54.918;73.504;2023-04-23T11:59:43;99617.84;;;15.56;30.92
59487;BME280;45298;54.918;73.504;2023-04-23T12:02:11;99622.47;;;15.54;30.90
59487;BME280;45298;54.918;73.504;2023-04-23T12:04:42;99588.78;;;15.32;30.89
59487;BME280;45298;54.918;73.504;2023-04-23T12:07:12;99600.19;;;15.34;31.03
59487;BME280;45298;54.918;73.504;2023-04-23T12:09:57;99593.28;;;15.21;30.78
59487;BME280;45298;54.918;73.504;2023-04-23T12:12:34;99615.38;;;15.23;31.22
59487;BME280;45298;54.918;73.504;2023-04-23T12:15:08;99606.06;;;15.08;31.36
59487;BME280;45298;54.918;73.504;2023-04-23T12:17:37;99585.91;;;14.94;31.35
59487;BME280;45298;54.918;73.504;2023-04-23T12:20:09;99583.50;;;14.91;31.77
59487;BME280;45298;54.918;73.504;2023-04-23T12:22:40;99595.72;;;14.93;31.75
59487;BME280;45298;54.918;73.504;2023-04-23T12:25:09;99592.47;;;14.90;31.97
59487;BME280;45298;54.918;73.504;2023-04-23T12:27:39;99596.00;;;14.90;32.31
59487;BME280;45298;54.918;73.504;2023-04-23T12:30:08;99567.69;;;14.78;32.14
59487;BME280;45298;54.918;73.504;2023-04-23T12:32:40;99580.06;;;14.79;32.43
59487;BME280;45298;54.918;73.504;2023-04-23T12:35:09;99547.38;;;14.65;33.07
59487;BME280;45298;54.918;73.504;2023-04-23T12:37:38;99573.91;;;14.78;32.75
59487;BME280;45298;54.918;73.504;2023-04-23T12:40:07;99554.78;;;14.62;33.42
59487;BME280;45298;54.918;73.504;2023-04-23T12:42:36;99540.16;;;14.56;33.30
59487;BME280;45298;54.918;73.504;2023-04-23T12:45:07;99555.91;;;14.59;33.84
59487;BME280;45298;54.918;73.504;2023-04-23T12:47:36;99538.31;;;14.47;33.77
59487;BME280;45298;54.918;73.504;2023-04-23T12:50:05;99524.06;;;14.36;33.92
59487;BME280;45298;54.918;73.504;2023-04-23T12:52:34;99559.25;;;14.51;34.31
59487;BME280;45298;54.918;73.504;2023-04-23T12:55:03;99535.00;;;14.33;34.55
59487;BME280;45298;54.918;73.504;2023-04-23T12:57:33;99547.97;;;14.38;33.96
59487;BME280;45298;54.918;73.504;2023-04-23T13:00:02;99447.28;;;13.78;33.94
59487;BME280;45298;54.918;73.504;2023-04-23T13:02:32;99529.09;;;14.30;34.23
59487;BME280;45298;54.918;73.504;2023-04-23T13:05:01;99515.00;;;14.18;34.23
59487;BME280;45298;54.918;73.504;2023-04-23T13:07:30;99511.84;;;14.13;34.55